sensor_id;sensor_type;location;lat;lon;timestamp;pressure;altitude;pressure_sealevel;temperature;humidity
71392;BME280;59205;50.610;12.638;2022-12-10T00:00:48;94442.47;;;-1.11;100.00
71392;BME280;59205;50.610;12.638;2022-12-10T00:03:14;94447.06;;;-1.31;100.00
71392;BME280;59205;50.610;12.638;2022-12-10T00:05:39;94445.72;;;-1.39;100.00
71392;BME280;59205;50.610;12.638;2022-12-10T00:08:04;94451.81;;;-1.38;100.00
71392;BME280;59205;50.610;12.638;2022-12-10T00:10:30;94446.56;;;-1.42;100.00
71392;BME280;59205;50.610;12.638;2022-12-10T00:12:55;94447.72;;;-1.43;100.00
71392;BME280;59205;50.610;12.638;2022-12-10T00:15:21;94445.66;;;-1.35;100.00
71392;BME280;59205;50.610;12.638;2022-12-10T00:17:46;94451.44;;;-1.40;100.00
71392;BME280;59205;50.610;12.638;2022-12-10T00:20:12;94447.22;;;-1.38;100.00
71392;BME280;59205;50.610;12.638;2022-12-10T00:22:37;94441.91;;;-1.38;100.00
71392;BME280;59205;50.610;12.638;2022-12-10T00:25:03;94450.16;;;-1.32;100.00
71392;BME280;59205;50.610;12.638;2022-12-10T00:27:28;94449.72;;;-1.31;100.00
71392;BME280;59205;50.610;12.638;2022-12-10T00:29:55;94448.66;;;-1.33;100.00
71392;BME280;59205;50.610;12.638;2022-12-10T00:32:20;94450.22;;;-1.36;100.00
71392;BME280;59205;50.610;12.638;2022-12-10T00:34:46;94446.13;;;-1.40;100.00
71392;BME280;59205;50.610;12.638;2022-12-10T00:37:11;94441.03;;;-1.31;100.00
71392;BME280;59205;50.610;12.638;2022-12-10T00:39:37;94448.19;;;-1.28;100.00
71392;BME280;59205;50.610;12.638;2022-12-10T00:42:02;94445.34;;;-1.37;100.00
71392;BME280;59205;50.610;12.638;2022-12-10T00:44:28;94444.69;;;-1.25;100.00
71392;BME280;59205;50.610;12.638;2022-12-10T00:46:53;94444.75;;;-1.29;100.00
71392;BME280;59205;50.610;12.638;2022-12-10T00:49:19;94450.34;;;-1.23;100.00
71392;BME280;59205;50.610;12.638;2022-12-10T00:51:48;94451.16;;;-1.26;100.00
71392;BME280;59205;50.610;12.638;2022-12-10T00:54:13;94451.50;;;-1.24;100.00
71392;BME280;59205;50.610;12.638;2022-12-10T00:56:39;94445.78;;;-1.23;100.00
71392;BME280;59205;50.610;12.638;2022-12-10T00:59:04;94450.69;;;-1.21;100.00
71392;BME280;59205;50.610;12.638;2022-12-10T01:03:59;94451.50;;;-1.24;100.00
71392;BME280;59205;50.610;12.638;2022-12-10T01:06:28;94451.16;;;-1.26;100.00
71392;BME280;59205;50.610;12.638;2022-12-10T01:08:56;94448.34;;;-1.19;100.00
71392;BME280;59205;50.610;12.638;2022-12-10T01:11:25;94453.31;;;-1.21;100.00
71392;BME280;59205;50.610;12.638;2022-12-10T01:13:51;94464.91;;;-1.12;100.00
71392;BME280;59205;50.610;12.638;2022-12-10T01:16:18;94457.91;;;-1.22;100.00
71392;BME280;59205;50.610;12.638;2022-12-10T01:18:45;94459.19;;;-1.30;100.00
71392;BME280;59205;50.610;12.638;2022-12-10T01:21:13;94456.13;;;-1.28;100.00
71392;BME280;59205;50.610;12.638;2022-12-10T01:23:41;94455.13;;;-1.34;100.00
71392;BME280;59205;50.610;12.638;2022-12-10T01:26:12;94457.47;;;-1.36;100.00
71392;BME280;59205;50.610;12.638;2022-12-10T01:28:39;94451.03;;;-1.39;100.00
71392;BME280;59205;50.610;12.638;2022-12-10T01:31:07;94454.88;;;-1.40;100.00
71392;BME280;59205;50.610;12.638;2022-12-10T01:33:34;94457.56;;;-1.43;100.00
71392;BME280;59205;50.610;12.638;2022-12-10T01:36:15;94460.66;;;-1.45;100.00
71392;BME280;59205;50.610;12.638;2022-12-10T01:38:41;94455.75;;;-1.46;100.00
71392;BME280;59205;50.610;12.638;2022-12-10T01:41:09;94463.72;;;-1.46;100.00
71392;BME280;59205;50.610;12.638;2022-12-10T01:46:38;94470.78;;;-1.40;100.00
71392;BME280;59205;50.610;12.638;2022-12-10T01:49:07;94460.44;;;-1.34;100.00
71392;BME280;59205;50.610;12.638;2022-12-10T01:51:35;94462.78;;;-1.36;100.00
71392;BME280;59205;50.610;12.638;2022-12-10T01:54:03;94463.44;;;-1.32;100.00
71392;BME280;59205;50.610;12.638;2022-12-10T01:56:31;94472.13;;;-1.32;100.00
71392;BME280;59205;50.610;12.638;2022-12-10T01:58:57;94480.09;;;-1.32;100.00
71392;BME280;59205;50.610;12.638;2022-12-10T02:02:00;94469.81;;;-1.30;100.00
71392;BME280;59205;50.610;12.638;2022-12-10T02:06:58;94467.78;;;-1.22;100.00
71392;BME280;59205;50.610;12.638;2022-12-10T02:09:32;94475.84;;;-1.26;100.00
71392;BME280;59205;50.610;12.638;2022-12-10T02:12:23;94478.28;;;-1.15;100.00
71392;BME280;59205;50.610;12.638;2022-12-10T02:14:58;94476.41;;;-1.18;100.00
71392;BME280;59205;50.610;12.638;2022-12-10T02:17:34;94469.28;;;-1.21;100.00
71392;BME280;59205;50.610;12.638;2022-12-10T02:22:51;94466.00;;;-1.29;100.00
71392;BME280;59205;50.610;12.638;2022-12-10T02:25:23;94468.25;;;-1.27;100.00
71392;BME280;59205;50.610;12.638;2022-12-10T02:28:12;94467.78;;;-1.22;100.00
71392;BME280;59205;50.610;12.638;2022-12-10T02:30:39;94477.38;;;-1.28;100.00
71392;BME280;59205;50.610;12.638;2022-12-10T02:33:07;94480.72;;;-1.24;100.00
71392;BME280;59205;50.610;12.638;2022-12-10T02:35:35;94479.50;;;-1.20;100.00
71392;BME280;59205;50.610;12.638;2022-12-10T02:38:13;94475.75;;;-1.22;100.00
71392;BME280;59205;50.610;12.638;2022-12-10T02:40:45;94471.59;;;-1.23;100.00
71392;BME280;59205;50.610;12.638;2022-12-10T02:43:13;94477.91;;;-1.17;100.00
71392;BME280;59205;50.610;12.638;2022-12-10T02:45:39;94478.28;;;-1.15;100.00
71392;BME280;59205;50.610;12.638;2022-12-10T02:48:06;94477.56;;;-1.19;100.00
71392;BME280;59205;50.610;12.638;2022-12-10T02:50:32;94484.75;;;-1.16;100.00
71392;BME280;59205;50.610;12.638;2022-12-10T02:52:57;94487.03;;;-1.18;100.00
71392;BME280;59205;50.610;12.638;2022-12-10T02:55:23;94478.72;;;-1.20;100.00
71392;BME280;59205;50.610;12.638;2022-12-10T03:00:50;94483.81;;;-1.26;100.00
71392;BME280;59205;50.610;12.638;2022-12-10T03:06:10;94485.34;;;-1.28;100.00
71392;BME280;59205;50.610;12.638;2022-12-10T03:08:58;94480.88;;;-1.31;100.00
71392;BME280;59205;50.610;12.638;2022-12-10T03:11:25;94480.66;;;-1.40;100.00
71392;BME280;59205;50.610;12.638;2022-12-10T03:16:38;94484.47;;;-1.41;100.00
71392;BME280;59205;50.610;12.638;2022-12-10T03:19:07;94477.59;;;-1.39;100.00
71392;BME280;59205;50.610;12.638;2022-12-10T03:21:37;94477.00;;;-1.46;100.00
71392;BME280;59205;50.610;12.638;2022-12-10T03:24:03;94478.44;;;-1.42;100.00
71392;BME280;59205;50.610;12.638;2022-12-10T03:26:29;94476.94;;;-1.43;100.00
71392;BME280;59205;50.610;12.638;2022-12-10T03:29:06;94476.16;;;-1.43;100.00
71392;BME280;59205;50.610;12.638;2022-12-10T03:31:34;94475.22;;;-1.33;100.00
71392;BME280;59205;50.610;12.638;2022-12-10T03:34:01;94473.84;;;-1.41;100.00
71392;BME280;59205;50.610;12.638;2022-12-10T03:36:27;94475.00;;;-1.42;100.00
71392;BME280;59205;50.610;12.638;2022-12-10T03:38:54;94477.75;;;-1.46;100.00
71392;BME280;59205;50.610;12.638;2022-12-10T03:41:20;94472.34;;;-1.42;100.00
71392;BME280;59205;50.610;12.638;2022-12-10T03:43:57;94476.31;;;-1.50;100.00
71392;BME280;59205;50.610;12.638;2022-12-10T03:46:24;94477.00;;;-1.46;100.00
71392;BME280;59205;50.610;12.638;2022-12-10T03:48:51;94478.22;;;-1.51;100.00
71392;BME280;59205;50.610;12.638;2022-12-10T03:51:16;94471.34;;;-1.48;100.00
71392;BME280;59205;50.610;12.638;2022-12-10T03:53:42;94467.03;;;-1.42;100.00
71392;BME280;59205;50.610;12.638;2022-12-10T03:56:08;94469.50;;;-1.51;100.00
71392;BME280;59205;50.610;12.638;2022-12-10T03:58:33;94470.03;;;-1.40;100.00
71392;BME280;59205;50.610;12.638;2022-12-10T04:00:59;94471.34;;;-1.48;100.00
71392;BME280;59205;50.610;12.638;2022-12-10T04:03:24;94482.97;;;-1.42;100.00
71392;BME280;59205;50.610;12.638;2022-12-10T04:05:50;94475.28;;;-1.37;100.00
71392;BME280;59205;50.610;12.638;2022-12-10T04:08:15;94482.53;;;-1.37;100.00
71392;BME280;59205;50.610;12.638;2022-12-10T04:10:41;94483.50;;;-1.51;100.00
71392;BME280;59205;50.610;12.638;2022-12-10T04:13:06;94480.31;;;-1.42;100.00
71392;BME280;59205;50.610;12.638;2022-12-10T04:15:50;94479.88;;;-1.37;100.00
71392;BME280;59205;50.610;12.638;2022-12-10T04:18:34;94476.84;;;-1.39;100.00
71392;BME280;59205;50.610;12.638;2022-12-10T04:20:59;94469.69;;;-1.42;100.00
71392;BME280;59205;50.610;12.638;2022-12-10T04:23:44;94482.25;;;-1.43;100.00
71392;BME280;59205;50.610;12.638;2022-12-10T04:26:27;94469.84;;;-1.49;100.00
71392;BME280;59205;50.610;12.638;2022-12-10T04:29:11;94470.25;;;-1.51;100.00
71392;BME280;59205;50.610;12.638;2022-12-10T04:31:37;94470.13;;;-1.44;100.00
71392;BME280;59205;50.610;12.638;2022-12-10T04:34:02;94471.28;;;-1.45;100.00
71392;BME280;59205;50.610;12.638;2022-12-10T04:36:28;94462.56;;;-1.45;100.00
71392;BME280;59205;50.610;12.638;2022-12-10T04:38:53;94465.16;;;-1.42;100.00
71392;BME280;59205;50.610;12.638;2022-12-10T04:41:18;94465.16;;;-1.42;100.00
71392;BME280;59205;50.610;12.638;2022-12-10T04:43:44;94463.56;;;-1.39;100.00
71392;BME280;59205;50.610;12.638;2022-12-10T04:46:10;94462.56;;;-1.45;100.00
71392;BME280;59205;50.610;12.638;2022-12-10T04:48:35;94462.50;;;-1.42;100.00
71392;BME280;59205;50.610;12.638;2022-12-10T04:51:01;94465.22;;;-1.45;100.00
71392;BME280;59205;50.610;12.638;2022-12-10T04:53:27;94455.06;;;-1.50;100.00
71392;BME280;59205;50.610;12.638;2022-12-10T04:55:52;94461.41;;;-1.44;100.00
71392;BME280;59205;50.610;12.638;2022-12-10T04:58:18;94452.75;;;-1.48;100.00
71392;BME280;59205;50.610;12.638;2022-12-10T05:00:43;94449.75;;;-1.50;100.00
71392;BME280;59205;50.610;12.638;2022-12-10T05:03:09;94452.03;;;-1.49;100.00
71392;BME280;59205;50.610;12.638;2022-12-10T05:05:35;94461.88;;;-1.49;100.00
71392;BME280;59205;50.610;12.638;2022-12-10T05:08:00;94450.59;;;-1.53;100.00
71392;BME280;59205;50.610;12.638;2022-12-10T05:10:26;94458.47;;;-1.50;100.00
71392;BME280;59205;50.610;12.638;2022-12-10T05:12:51;94457.38;;;-1.52;100.00
71392;BME280;59205;50.610;12.638;2022-12-10T05:15:17;94449.00;;;-1.51;100.00
71392;BME280;59205;50.610;12.638;2022-12-10T05:17:43;94455.56;;;-1.55;100.00
71392;BME280;59205;50.610;12.638;2022-12-10T05:20:09;94452.91;;;-1.55;100.00
71392;BME280;59205;50.610;12.638;2022-12-10T05:22:34;94458.13;;;-1.52;100.00
71392;BME280;59205;50.610;12.638;2022-12-10T05:25:19;94462.69;;;-1.52;100.00
71392;BME280;59205;50.610;12.638;2022-12-10T05:27:44;94457.66;;;-1.47;100.00
71392;BME280;59205;50.610;12.638;2022-12-10T05:30:10;94466.38;;;-1.46;100.00
71392;BME280;59205;50.610;12.638;2022-12-10T05:32:36;94475.63;;;-1.54;100.00
71392;BME280;59205;50.610;12.638;2022-12-10T05:35:02;94469.22;;;-1.57;100.00
71392;BME280;59205;50.610;12.638;2022-12-10T05:37:27;94477.00;;;-1.46;100.00
71392;BME280;59205;50.610;12.638;2022-12-10T05:39:54;94479.31;;;-1.48;100.00
71392;BME280;59205;50.610;12.638;2022-12-10T05:42:19;94486.78;;;-1.43;100.00
71392;BME280;59205;50.610;12.638;2022-12-10T05:44:45;94481.22;;;-1.49;100.00
71392;BME280;59205;50.610;12.638;2022-12-10T05:47:10;94485.72;;;-1.46;100.00
71392;BME280;59205;50.610;12.638;2022-12-10T05:49:36;94489.88;;;-1.45;100.00
71392;BME280;59205;50.610;12.638;2022-12-10T05:52:01;94485.84;;;-1.33;100.00
71392;BME280;59205;50.610;12.638;2022-12-10T05:54:27;94488.28;;;-1.42;100.00
71392;BME280;59205;50.610;12.638;2022-12-10T05:56:52;94486.06;;;-1.44;100.00
71392;BME280;59205;50.610;12.638;2022-12-10T05:59:19;94492.03;;;-1.40;100.00
71392;BME280;59205;50.610;12.638;2022-12-10T06:01:45;94498.44;;;-1.37;100.00
71392;BME280;59205;50.610;12.638;2022-12-10T06:04:10;94492.78;;;-1.39;100.00
71392;BME280;59205;50.610;12.638;2022-12-10T06:06:37;94501.84;;;-1.37;100.00
71392;BME280;59205;50.610;12.638;2022-12-10T06:09:04;94506.06;;;-1.39;100.00
71392;BME280;59205;50.610;12.638;2022-12-10T06:11:30;94501.50;;;-1.39;100.00
71392;BME280;59205;50.610;12.638;2022-12-10T06:13:58;94510.69;;;-1.43;100.00
71392;BME280;59205;50.610;12.638;2022-12-10T06:16:26;94514.84;;;-1.42;100.00
71392;BME280;59205;50.610;12.638;2022-12-10T06:18:52;94514.50;;;-1.44;100.00
71392;BME280;59205;50.610;12.638;2022-12-10T06:21:18;94507.84;;;-1.33;100.00
71392;BME280;59205;50.610;12.638;2022-12-10T06:23:47;94512.88;;;-1.38;100.00
71392;BME280;59205;50.610;12.638;2022-12-10T06:26:21;94513.63;;;-1.38;100.00
71392;BME280;59205;50.610;12.638;2022-12-10T06:28:48;94516.97;;;-1.34;100.00
71392;BME280;59205;50.610;12.638;2022-12-10T06:31:14;94523.03;;;-1.33;100.00
71392;BME280;59205;50.610;12.638;2022-12-10T06:33:40;94521.59;;;-1.38;100.00
71392;BME280;59205;50.610;12.638;2022-12-10T06:36:07;94526.56;;;-1.40;100.00
71392;BME280;59205;50.610;12.638;2022-12-10T06:38:34;94531.53;;;-1.42;100.00
71392;BME280;59205;50.610;12.638;2022-12-10T06:41:04;94529.63;;;-1.41;100.00
71392;BME280;59205;50.610;12.638;2022-12-10T06:43:30;94530.31;;;-1.37;100.00
71392;BME280;59205;50.610;12.638;2022-12-10T06:45:58;94531.13;;;-1.40;100.00
71392;BME280;59205;50.610;12.638;2022-12-10T06:48:24;94536.84;;;-1.42;100.00
71392;BME280;59205;50.610;12.638;2022-12-10T06:50:49;94538.28;;;-1.37;100.00
71392;BME280;59205;50.610;12.638;2022-12-10T06:53:15;94543.19;;;-1.36;100.00
71392;BME280;59205;50.610;12.638;2022-12-10T06:55:41;94534.47;;;-1.36;100.00
71392;BME280;59205;50.610;12.638;2022-12-10T06:58:06;94544.75;;;-1.38;100.00
71392;BME280;59205;50.610;12.638;2022-12-10T07:00:35;94548.16;;;-1.38;100.00
71392;BME280;59205;50.610;12.638;2022-12-10T07:03:00;94545.09;;;-1.36;100.00
71392;BME280;59205;50.610;12.638;2022-12-10T07:05:26;94531.47;;;-1.38;100.00
71392;BME280;59205;50.610;12.638;2022-12-10T07:07:51;94545.09;;;-1.36;100.00
71392;BME280;59205;50.610;12.638;2022-12-10T07:10:17;94550.75;;;-1.34;100.00
71392;BME280;59205;50.610;12.638;2022-12-10T07:12:42;94542.56;;;-1.43;100.00
71392;BME280;59205;50.610;12.638;2022-12-10T07:15:08;94547.28;;;-1.31;100.00
71392;BME280;59205;50.610;12.638;2022-12-10T07:17:33;94554.22;;;-1.37;100.00
71392;BME280;59205;50.610;12.638;2022-12-10T07:19:59;94554.28;;;-1.41;100.00
71392;BME280;59205;50.610;12.638;2022-12-10T07:22:24;94549.72;;;-1.40;100.00
71392;BME280;59205;50.610;12.638;2022-12-10T07:24:50;94551.56;;;-1.37;100.00
71392;BME280;59205;50.610;12.638;2022-12-10T07:27:15;94545.88;;;-1.39;100.00
71392;BME280;59205;50.610;12.638;2022-12-10T07:29:41;94554.28;;;-1.41;100.00
71392;BME280;59205;50.610;12.638;2022-12-10T07:32:06;94557.97;;;-1.35;100.00
71392;BME280;59205;50.610;12.638;2022-12-10T07:34:32;94562.59;;;-1.39;100.00
71392;BME280;59205;50.610;12.638;2022-12-10T07:36:57;94563.34;;;-1.38;100.00
71392;BME280;59205;50.610;12.638;2022-12-10T07:39:23;94558.78;;;-1.38;100.00
71392;BME280;59205;50.610;12.638;2022-12-10T07:41:50;94556.94;;;-1.41;100.00
71392;BME280;59205;50.610;12.638;2022-12-10T07:44:21;94564.91;;;-1.41;100.00
71392;BME280;59205;50.610;12.638;2022-12-10T07:46:47;94556.88;;;-1.37;100.00
71392;BME280;59205;50.610;12.638;2022-12-10T07:49:14;94567.13;;;-1.39;100.00
71392;BME280;59205;50.610;12.638;2022-12-10T07:51:39;94563.41;;;-1.42;100.00
71392;BME280;59205;50.610;12.638;2022-12-10T07:54:05;94569.41;;;-1.38;100.00
71392;BME280;59205;50.610;12.638;2022-12-10T07:56:30;94577.84;;;-1.43;100.00
71392;BME280;59205;50.610;12.638;2022-12-10T07:58:57;94568.72;;;-1.42;100.00
71392;BME280;59205;50.610;12.638;2022-12-10T08:01:25;94573.41;;;-1.49;100.00
71392;BME280;59205;50.610;12.638;2022-12-10T08:03:51;94574.09;;;-1.45;100.00
71392;BME280;59205;50.610;12.638;2022-12-10T08:06:20;94575.59;;;-1.44;100.00
71392;BME280;59205;50.610;12.638;2022-12-10T08:08:46;94570.63;;;-1.42;100.00
71392;BME280;59205;50.610;12.638;2022-12-10T08:11:13;94563.34;;;-1.38;100.00
71392;BME280;59205;50.610;12.638;2022-12-10T08:13:39;94563.34;;;-1.38;100.00
71392;BME280;59205;50.610;12.638;2022-12-10T08:16:08;94561.44;;;-1.38;100.00
71392;BME280;59205;50.610;12.638;2022-12-10T08:18:35;94560.31;;;-1.40;100.00
71392;BME280;59205;50.610;12.638;2022-12-10T08:21:21;94565.59;;;-1.37;100.00
71392;BME280;59205;50.610;12.638;2022-12-10T08:23:47;94561.44;;;-1.38;100.00
71392;BME280;59205;50.610;12.638;2022-12-10T08:26:18;94569.53;;;-1.45;100.00
71392;BME280;59205;50.610;12.638;2022-12-10T08:28:48;94575.88;;;-1.39;100.00
71392;BME280;59205;50.610;12.638;2022-12-10T08:31:15;94580.41;;;-1.39;100.00
71392;BME280;59205;50.610;12.638;2022-12-10T08:33:41;94578.88;;;-1.37;100.00
71392;BME280;59205;50.610;12.638;2022-12-10T08:36:12;94571.84;;;-1.27;100.00
71392;BME280;59205;50.610;12.638;2022-12-10T08:38:38;94573.41;;;-1.30;100.00
71392;BME280;59205;50.610;12.638;2022-12-10T08:41:13;94575.28;;;-1.27;100.00
71392;BME280;59205;50.610;12.638;2022-12-10T08:43:43;94583.97;;;-1.26;100.00
71392;BME280;59205;50.610;12.638;2022-12-10T08:46:17;94587.41;;;-1.26;100.00
71392;BME280;59205;50.610;12.638;2022-12-10T08:48:43;94581.66;;;-1.24;100.00
71392;BME280;59205;50.610;12.638;2022-12-10T08:51:11;94592.56;;;-1.19;100.00
71392;BME280;59205;50.610;12.638;2022-12-10T08:53:38;94591.28;;;-1.11;100.00
71392;BME280;59205;50.610;12.638;2022-12-10T08:56:04;94594.34;;;-1.12;100.00
71392;BME280;59205;50.610;12.638;2022-12-10T08:58:29;94594.75;;;-1.14;100.00
71392;BME280;59205;50.610;12.638;2022-12-10T09:00:55;94601.16;;;-1.11;100.00
71392;BME280;59205;50.610;12.638;2022-12-10T09:03:20;94593.31;;;-1.18;100.00
71392;BME280;59205;50.610;12.638;2022-12-10T09:05:46;94601.09;;;-1.08;100.00
71392;BME280;59205;50.610;12.638;2022-12-10T09:08:12;94606.41;;;-1.08;100.00
71392;BME280;59205;50.610;12.638;2022-12-10T09:10:39;94605.38;;;-1.14;100.00
71392;BME280;59205;50.610;12.638;2022-12-10T09:13:05;94606.16;;;-1.13;100.00
71392;BME280;59205;50.610;12.638;2022-12-10T09:15:31;94604.75;;;-1.21;100.00
71392;BME280;59205;50.610;12.638;2022-12-10T09:17:59;94608.47;;;-1.15;100.00
71392;BME280;59205;50.610;12.638;2022-12-10T09:20:25;94608.56;;;-1.22;100.00
71392;BME280;59205;50.610;12.638;2022-12-10T09:22:50;94606.53;;;-1.15;100.00
71392;BME280;59205;50.610;12.638;2022-12-10T09:25:16;94610.22;;;-1.09;100.00
71392;BME280;59205;50.610;12.638;2022-12-10T09:27:42;94611.31;;;-1.06;100.00
71392;BME280;59205;50.610;12.638;2022-12-10T09:30:09;94605.31;;;-1.10;100.00
71392;BME280;59205;50.610;12.638;2022-12-10T09:32:34;94604.34;;;-1.20;100.00
71392;BME280;59205;50.610;12.638;2022-12-10T09:35:00;94608.81;;;-1.13;100.00
71392;BME280;59205;50.610;12.638;2022-12-10T09:37:26;94605.81;;;-1.15;100.00
71392;BME280;59205;50.610;12.638;2022-12-10T09:39:51;94606.81;;;-1.09;100.00
71392;BME280;59205;50.610;12.638;2022-12-10T09:45:20;94602.94;;;-1.05;100.00
71392;BME280;59205;50.610;12.638;2022-12-10T09:48:02;94606.63;;;-0.99;100.00
71392;BME280;59205;50.610;12.638;2022-12-10T09:50:52;94604.84;;;-1.05;100.00
71392;BME280;59205;50.610;12.638;2022-12-10T09:53:20;94607.09;;;-1.04;100.00
71392;BME280;59205;50.610;12.638;2022-12-10T09:55:48;94600.06;;;-1.14;100.00
71392;BME280;59205;50.610;12.638;2022-12-10T09:58:18;94604.91;;;-1.09;100.00
71392;BME280;59205;50.610;12.638;2022-12-10T10:00:47;94591.97;;;-0.87;100.00
71392;BME280;59205;50.610;12.638;2022-12-10T10:03:15;94594.53;;;-1.03;100.00
71392;BME280;59205;50.610;12.638;2022-12-10T10:05:48;94593.13;;;-0.88;100.00
71392;BME280;59205;50.610;12.638;2022-12-10T10:08:28;94592.34;;;-0.89;100.00
71392;BME280;59205;50.610;12.638;2022-12-10T10:10:56;94597.88;;;-0.99;100.00
71392;BME280;59205;50.610;12.638;2022-12-10T10:13:45;94593.19;;;-0.92;100.00
71392;BME280;59205;50.610;12.638;2022-12-10T10:16:20;94592.25;;;-0.82;100.00
71392;BME280;59205;50.610;12.638;2022-12-10T10:18:58;94593.19;;;-0.72;100.00
71392;BME280;59205;50.610;12.638;2022-12-10T10:21:26;94593.59;;;-0.74;100.00
71392;BME280;59205;50.610;12.638;2022-12-10T10:23:54;94595.78;;;-0.88;100.00
71392;BME280;59205;50.610;12.638;2022-12-10T10:26:20;94590.41;;;-0.85;100.00
71392;BME280;59205;50.610;12.638;2022-12-10T10:28:46;94592.44;;;-0.92;100.00
71392;BME280;59205;50.610;12.638;2022-12-10T10:31:26;94596.53;;;-1.07;100.00
71392;BME280;59205;50.610;12.638;2022-12-10T10:33:54;94601.78;;;-1.04;100.00
71392;BME280;59205;50.610;12.638;2022-12-10T10:36:29;94595.38;;;-1.06;100.00
71392;BME280;59205;50.610;12.638;2022-12-10T10:38:55;94591.53;;;-0.86;100.00
71392;BME280;59205;50.610;12.638;2022-12-10T10:41:23;94591.41;;;-0.98;100.00
71392;BME280;59205;50.610;12.638;2022-12-10T10:43:59;94585.47;;;-0.86;100.00
71392;BME280;59205;50.610;12.638;2022-12-10T10:46:26;94590.94;;;-0.74;100.00
71392;BME280;59205;50.610;12.638;2022-12-10T10:49:13;94586.44;;;-0.41;100.00
71392;BME280;59205;50.610;12.638;2022-12-10T10:51:45;94596.91;;;-0.34;100.00
71392;BME280;59205;50.610;12.638;2022-12-10T10:54:11;94594.19;;;-0.31;100.00
71392;BME280;59205;50.610;12.638;2022-12-10T10:56:41;94589.97;;;-0.28;100.00
71392;BME280;59205;50.610;12.638;2022-12-10T10:59:30;94593.63;;;0.09;98.65
71392;BME280;59205;50.610;12.638;2022-12-10T11:02:04;94600.94;;;0.05;97.90
71392;BME280;59205;50.610;12.638;2022-12-10T11:07:20;94598.69;;;-0.63;99.99
71392;BME280;59205;50.610;12.638;2022-12-10T11:09:48;94591.09;;;-0.45;100.00
71392;BME280;59205;50.610;12.638;2022-12-10T11:12:34;94599.41;;;-0.43;100.00
71392;BME280;59205;50.610;12.638;2022-12-10T11:15:01;94590.47;;;-0.53;100.00
71392;BME280;59205;50.610;12.638;2022-12-10T11:17:27;94598.34;;;-0.65;100.00
71392;BME280;59205;50.610;12.638;2022-12-10T11:20:13;94596.19;;;-0.70;100.00
71392;BME280;59205;50.610;12.638;2022-12-10T11:22:56;94592.47;;;-0.76;100.00
71392;BME280;59205;50.610;12.638;2022-12-10T11:26:19;94589.59;;;-0.82;100.00
71392;BME280;59205;50.610;12.638;2022-12-10T11:28:59;94589.44;;;-0.75;100.00
71392;BME280;59205;50.610;12.638;2022-12-10T11:32:00;94592.03;;;-0.71;100.00
71392;BME280;59205;50.610;12.638;2022-12-10T11:34:51;94591.63;;;-0.89;100.00
71392;BME280;59205;50.610;12.638;2022-12-10T11:37:31;94595.03;;;-0.89;100.00
71392;BME280;59205;50.610;12.638;2022-12-10T11:40:13;94596.91;;;-0.70;100.00
71392;BME280;59205;50.610;12.638;2022-12-10T11:52:05;94582.47;;;-1.08;100.00
71392;BME280;59205;50.610;12.638;2022-12-10T11:54:46;94592.16;;;-1.37;100.00
71392;BME280;59205;50.610;12.638;2022-12-10T12:13:57;94595.13;;;-1.54;100.00
71392;BME280;59205;50.610;12.638;2022-12-10T12:16:26;94596.63;;;-1.53;100.00
71392;BME280;59205;50.610;12.638;2022-12-10T12:19:02;94595.66;;;-1.63;100.00
71392;BME280;59205;50.610;12.638;2022-12-10T12:21:30;94599.28;;;-1.53;100.00
71392;BME280;59205;50.610;12.638;2022-12-10T12:31:46;94600.34;;;-1.08;100.00
71392;BME280;59205;50.610;12.638;2022-12-10T12:34:23;94605.66;;;-0.89;100.00
71392;BME280;59205;50.610;12.638;2022-12-10T12:36:51;94604.34;;;-0.61;100.00
71392;BME280;59205;50.610;12.638;2022-12-10T12:44:33;94600.53;;;-0.99;100.00
71392;BME280;59205;50.610;12.638;2022-12-10T12:47:18;94599.53;;;-1.05;100.00
71392;BME280;59205;50.610;12.638;2022-12-10T12:49:44;94597.53;;;-1.01;100.00
71392;BME280;59205;50.610;12.638;2022-12-10T12:55:02;94598.84;;;-1.52;100.00
71392;BME280;59205;50.610;12.638;2022-12-10T12:57:45;94598.13;;;-1.52;100.00
71392;BME280;59205;50.610;12.638;2022-12-10T13:00:16;94607.75;;;-1.62;100.00
71392;BME280;59205;50.610;12.638;2022-12-10T13:05:50;94601.69;;;-1.62;100.00
71392;BME280;59205;50.610;12.638;2022-12-10T13:10:51;94603.19;;;-1.61;100.00
71392;BME280;59205;50.610;12.638;2022-12-10T13:13:25;94618.44;;;-1.65;100.00
71392;BME280;59205;50.610;12.638;2022-12-10T13:15:51;94606.31;;;-1.66;100.00
71392;BME280;59205;50.610;12.638;2022-12-10T13:29:12;94612.31;;;-1.62;100.00
71392;BME280;59205;50.610;12.638;2022-12-10T13:31:32;94614.63;;;-1.64;100.00
71392;BME280;59205;50.610;12.638;2022-12-10T13:36:34;94619.50;;;-1.59;100.00
71392;BME280;59205;50.610;12.638;2022-12-10T13:41:29;94621.16;;;-1.68;100.00
71392;BME280;59205;50.610;12.638;2022-12-10T13:47:32;94635.94;;;-1.67;100.00
71392;BME280;59205;50.610;12.638;2022-12-10T13:50:46;94628.56;;;-1.83;100.00
71392;BME280;59205;50.610;12.638;2022-12-10T13:56:18;94636.84;;;-1.77;100.00
71392;BME280;59205;50.610;12.638;2022-12-10T14:07:25;94642.28;;;-1.84;100.00
71392;BME280;59205;50.610;12.638;2022-12-10T14:09:53;94654.84;;;-1.88;100.00
71392;BME280;59205;50.610;12.638;2022-12-10T14:12:26;94654.63;;;-1.74;100.00
71392;BME280;59205;50.610;12.638;2022-12-10T14:15:24;94656.69;;;-1.85;100.00
71392;BME280;59205;50.610;12.638;2022-12-10T14:18:00;94662.53;;;-1.71;100.00
71392;BME280;59205;50.610;12.638;2022-12-10T14:20:31;94664.22;;;-1.84;100.00
71392;BME280;59205;50.610;12.638;2022-12-10T14:23:03;94662.50;;;-1.94;100.00
71392;BME280;59205;50.610;12.638;2022-12-10T14:25:47;94672.63;;;-1.85;100.00
71392;BME280;59205;50.610;12.638;2022-12-10T14:28:15;94659.00;;;-1.87;100.00
71392;BME280;59205;50.610;12.638;2022-12-10T14:30:46;94663.84;;;-1.82;100.00
71392;BME280;59205;50.610;12.638;2022-12-10T14:33:16;94668.16;;;-1.92;100.00
71392;BME280;59205;50.610;12.638;2022-12-10T14:35:46;94663.69;;;-1.98;100.00